Time;durP1;ratioP1;P1;durP2;ratioP2;P2;SDS_P1;SDS_P2;PMS_P1;PMS_P2;Temp;Humidity;BMP_temperature;BMP_pressure;BME280_temperature;BME280_humidity;BME280_pressure;Samples;Min_cycle;Max_cycle;Signal;HPM_P1;HPM_P2
2022/08/25 00:01:13;;;;;;;10.38;3.42;;;;;;;8.93;100.00;101359.16;4968022;28;20041;-74
2022/08/25 00:03:40;;;;;;;14.43;3.28;;;;;;;8.91;100.00;101361.16;4983087;28;20042;-74
2022/08/25 00:06:06;;;;;;;14.68;3.40;;;;;;;8.79;100.00;101357.84;5002419;28;20053;-75
2022/08/25 00:08:33;;;;;;;8.35;2.80;;;;;;;8.69;100.00;101367.78;5006181;28;20069;-75
2022/08/25 00:11:10;;;;;;;15.02;3.10;;;;;;;8.64;100.00;101367.38;4996767;28;20045;-75
2022/08/25 00:13:40;;;;;;;13.65;2.78;;;;;;;8.51;100.00;101346.25;5002711;28;20041;-75
2022/08/25 00:16:05;;;;;;;12.25;2.83;;;;;;;8.62;100.00;101361.31;4996688;28;20125;-74
2022/08/25 00:18:32;;;;;;;16.65;2.28;;;;;;;8.77;100.00;101375.91;4966441;28;20045;-74
2022/08/25 00:20:57;;;;;;;9.77;2.55;;;;;;;8.95;100.00;101376.81;4998661;28;20109;-75
2022/08/25 00:23:23;;;;;;;9.77;2.40;;;;;;;9.15;100.00;101369.47;4984269;28;20042;-75
2022/08/25 00:25:49;;;;;;;12.70;2.70;;;;;;;9.33;100.00;101377.53;4996933;28;20025;-76
2022/08/25 00:28:15;;;;;;;14.88;3.45;;;;;;;9.40;100.00;101369.72;4997416;28;20503;-75
2022/08/25 00:30:42;;;;;;;17.45;3.65;;;;;;;9.59;100.00;101376.78;5002976;28;20062;-73
2022/08/25 00:33:07;;;;;;;11.77;2.60;;;;;;;9.76;100.00;101377.75;4969857;28;20488;-75
2022/08/25 00:35:42;;;;;;;15.93;3.10;;;;;;;9.90;100.00;101388.78;4997464;28;20089;-76
2022/08/25 00:38:11;;;;;;;12.60;3.83;;;;;;;10.00;100.00;101388.69;4983773;28;20044;-75
2022/08/25 00:40:38;;;;;;;13.05;2.80;;;;;;;10.05;100.00;101389.03;4996482;28;20125;-74
2022/08/25 00:43:05;;;;;;;13.32;2.97;;;;;;;10.04;100.00;101389.22;4978787;28;20042;-75
2022/08/25 00:45:31;;;;;;;9.27;3.08;;;;;;;10.01;100.00;101393.06;5004775;28;20492;-75
2022/08/25 00:47:57;;;;;;;17.95;2.72;;;;;;;9.94;100.00;101385.78;4997682;28;20531;-75
2022/08/25 00:50:34;;;;;;;13.90;2.67;;;;;;;9.84;100.00;101391.25;4977126;28;20042;-76
2022/08/25 00:53:02;;;;;;;19.40;3.42;;;;;;;9.70;100.00;101392.63;4983644;28;20033;-75
2022/08/25 00:55:36;;;;;;;7.57;2.63;;;;;;;9.54;100.00;101387.97;4971498;28;20404;-74
2022/08/25 00:58:12;;;;;;;13.25;2.90;;;;;;;9.49;100.00;101398.31;4989628;28;20125;-75
2022/08/25 01:00:46;;;;;;;14.15;2.60;;;;;;;9.38;100.00;101401.22;4997326;28;20066;-75
2022/08/25 01:03:12;;;;;;;12.65;2.53;;;;;;;9.39;100.00;101405.59;4991056;28;20037;-75
2022/08/25 01:05:39;;;;;;;20.05;3.22;;;;;;;9.48;100.00;101398.50;4971348;28;20050;-75
2022/08/25 01:08:06;;;;;;;19.23;3.17;;;;;;;9.50;100.00;101399.16;5003063;28;20030;-74
2022/08/25 01:10:34;;;;;;;12.60;3.08;;;;;;;9.58;100.00;101407.28;4993661;28;20113;-74
2022/08/25 01:13:26;;;;;;;20.55;3.00;;;;;;;9.63;100.00;101400.47;4988530;28;20042;-75
2022/08/25 01:15:54;;;;;;;15.10;3.00;;;;;;;9.72;100.00;101398.72;5001948;28;20072;-74
2022/08/25 01:18:21;;;;;;;18.75;4.38;;;;;;;9.75;100.00;101397.56;5001034;28;20180;-74
2022/08/25 01:20:48;;;;;;;14.63;3.58;;;;;;;9.80;100.00;101395.25;4993282;28;20060;-75
2022/08/25 01:23:14;;;;;;;15.80;3.47;;;;;;;9.91;100.00;101386.94;4995202;28;20037;-75
2022/08/25 01:25:49;;;;;;;20.60;3.25;;;;;;;9.99;100.00;101400.44;4992605;28;20415;-74
2022/08/25 01:28:15;;;;;;;13.73;3.17;;;;;;;9.96;100.00;101384.63;5002525;28;20042;-74
2022/08/25 01:30:41;;;;;;;14.23;3.00;;;;;;;9.87;100.00;101381.03;5002096;28;20069;-74
2022/08/25 01:33:08;;;;;;;20.33;4.15;;;;;;;9.83;100.00;101384.19;5004626;28;20337;-75
2022/08/25 01:35:35;;;;;;;14.70;2.80;;;;;;;9.79;100.00;101393.53;5004339;28;20026;-73
2022/08/25 01:38:03;;;;;;;13.73;3.05;;;;;;;9.73;100.00;101391.50;4972568;28;20053;-74
2022/08/25 01:40:29;;;;;;;23.05;3.45;;;;;;;9.65;100.00;101393.09;5006104;28;20084;-73
2022/08/25 01:43:05;;;;;;;16.27;3.20;;;;;;;9.63;100.00;101386.19;4965669;28;20255;-74
2022/08/25 01:45:33;;;;;;;18.33;3.80;;;;;;;9.60;100.00;101399.94;5006292;28;20030;-74
2022/08/25 01:47:59;;;;;;;24.20;3.55;;;;;;;9.55;100.00;101396.84;4999207;28;20348;-74
2022/08/25 01:50:28;;;;;;;16.52;3.28;;;;;;;9.38;100.00;101371.72;4999818;28;20046;-73
2022/08/25 01:52:58;;;;;;;17.20;2.88;;;;;;;9.55;100.00;101407.59;4985942;28;20334;-74
2022/08/25 01:55:25;;;;;;;12.20;2.97;;;;;;;9.62;100.00;101408.69;4983241;28;20045;-73
2022/08/25 01:57:51;;;;;;;12.35;3.20;;;;;;;9.59;100.00;101387.50;5007651;28;20453;-73
2022/08/25 02:00:18;;;;;;;12.20;2.80;;;;;;;9.59;100.00;101395.56;4966698;28;20033;-74
2022/08/25 02:02:43;;;;;;;19.95;3.33;;;;;;;9.69;100.00;101399.84;5000139;28;20053;-74
2022/08/25 02:05:12;;;;;;;15.18;2.85;;;;;;;9.82;100.00;101409.38;4986161;28;20205;-74
2022/08/25 02:07:37;;;;;;;13.57;2.58;;;;;;;9.94;100.00;101413.47;5002472;28;20507;-74
2022/08/25 02:10:04;;;;;;;13.85;3.42;;;;;;;10.12;100.00;101421.53;4971799;28;20057;-74
2022/08/25 02:12:31;;;;;;;11.45;3.13;;;;;;;10.19;100.00;101432.47;4996408;28;20033;-74
2022/08/25 02:14:57;;;;;;;13.05;2.95;;;;;;;10.17;100.00;101413.84;4995749;28;20095;-73
2022/08/25 02:17:23;;;;;;;15.48;3.20;;;;;;;10.33;100.00;101423.88;4982164;28;20480;-75
2022/08/25 02:19:49;;;;;;;17.52;3.08;;;;;;;10.42;100.00;101436.38;4983088;28;20033;-73
2022/08/25 02:22:15;;;;;;;17.73;3.85;;;;;;;10.49;100.00;101431.22;4964513;28;20049;-75
2022/08/25 02:24:41;;;;;;;11.80;3.00;;;;;;;10.57;100.00;101433.94;4987102;28;20403;-74
2022/08/25 02:27:07;;;;;;;22.15;3.80;;;;;;;10.64;100.00;101439.53;4997608;28;20121;-75
2022/08/25 02:29:32;;;;;;;13.45;3.10;;;;;;;10.51;100.00;101416.59;4986108;28;20041;-74
2022/08/25 02:31:58;;;;;;;20.05;3.88;;;;;;;10.61;100.00;101437.16;4983486;28;20137;-75
2022/08/25 02:34:24;;;;;;;13.07;2.60;;;;;;;10.52;100.00;101423.66;4980103;28;20057;-73
2022/08/25 02:36:49;;;;;;;20.58;3.67;;;;;;;10.52;100.00;101428.22;5005385;28;20486;-74
2022/08/25 02:39:15;;;;;;;15.75;4.05;;;;;;;10.45;100.00;101427.16;4998913;28;20396;-74
2022/08/25 02:41:42;;;;;;;15.95;3.33;;;;;;;10.44;100.00;101431.69;4984817;28;20038;-74
2022/08/25 02:44:08;;;;;;;19.67;3.60;;;;;;;10.39;100.00;101428.63;4969422;28;20404;-73
2022/08/25 02:46:34;;;;;;;18.27;3.67;;;;;;;10.24;100.00;101400.59;4967472;28;20111;-74
2022/08/25 02:49:00;;;;;;;22.15;4.65;;;;;;;10.31;100.00;101434.78;4996998;28;20022;-74
2022/08/25 02:51:30;;;;;;;22.33;4.68;;;;;;;9.96;100.00;101416.88;4998697;28;20032;-74
2022/08/25 02:53:58;;;;;;;19.60;4.93;;;;;;;9.82;100.00;101442.44;5005171;28;20049;-75
2022/08/25 02:56:24;;;;;;;15.35;3.67;;;;;;;9.56;100.00;101442.34;5000873;28;20041;-74
2022/08/25 02:58:50;;;;;;;14.27;3.78;;;;;;;9.44;100.00;101441.72;5002448;28;20488;-75
2022/08/25 03:01:16;;;;;;;15.48;3.63;;;;;;;9.44;100.00;101440.88;4997368;28;20040;-75
2022/08/25 03:03:43;;;;;;;23.75;3.47;;;;;;;9.38;100.00;101438.81;5001006;28;20579;-75
2022/08/25 03:06:14;;;;;;;16.58;3.58;;;;;;;9.11;100.00;101431.63;5003166;28;20034;-74
2022/08/25 03:08:40;;;;;;;23.83;3.53;;;;;;;9.02;100.00;101433.34;4999019;28;20058;-74
2022/08/25 03:11:06;;;;;;;15.43;3.65;;;;;;;8.95;100.00;101434.97;4982261;28;20125;-74
2022/08/25 03:13:32;;;;;;;18.65;3.63;;;;;;;8.53;100.00;101401.41;4963096;28;20113;-73
2022/08/25 03:16:04;;;;;;;19.15;3.30;;;;;;;8.67;100.00;101434.94;4981808;28;20034;-75
2022/08/25 03:18:30;;;;;;;10.32;3.40;;;;;;;8.56;100.00;101432.44;4997972;28;20041;-74
2022/08/25 03:20:56;;;;;;;13.00;3.17;;;;;;;8.47;100.00;101428.81;5000240;28;20044;-74
2022/08/25 03:23:22;;;;;;;13.25;3.30;;;;;;;8.41;100.00;101433.88;4999858;28;20107;-74
2022/08/25 03:28:32;;;;;;;18.98;3.28;;;;;;;8.23;100.00;101447.13;4989529;28;20161;-74
2022/08/25 03:30:59;;;;;;;12.85;3.03;;;;;;;8.17;100.00;101443.19;4992119;28;20128;-74
2022/08/25 03:33:26;;;;;;;14.88;3.33;;;;;;;8.13;100.00;101444.50;4977798;28;21911;-74
2022/08/25 03:35:53;;;;;;;11.85;3.08;;;;;;;8.23;100.00;101449.81;4996035;28;20132;-74
2022/08/25 03:38:18;;;;;;;11.23;2.45;;;;;;;8.14;100.00;101435.47;4997126;28;20125;-75
2022/08/25 03:40:53;;;;;;;9.82;2.22;;;;;;;8.18;100.00;101436.00;4999416;28;20030;-74
2022/08/25 03:43:20;;;;;;;12.07;2.78;;;;;;;8.20;100.00;101450.09;4984995;28;20109;-74
2022/08/25 03:45:46;;;;;;;12.05;2.20;;;;;;;8.05;100.00;101437.16;4968836;28;20034;-74
2022/08/25 03:48:13;;;;;;;13.95;2.28;;;;;;;7.90;100.00;101434.06;4970182;28;20041;-74
2022/08/25 03:50:47;;;;;;;10.27;2.75;;;;;;;7.79;100.00;101434.22;5003761;28;20077;-75
2022/08/25 03:53:17;;;;;;;7.80;2.13;;;;;;;7.74;100.00;101441.81;4981394;28;20125;-74
2022/08/25 03:55:45;;;;;;;6.43;2.10;;;;;;;7.70;100.00;101435.91;4999093;28;20046;-74
2022/08/25 03:58:11;;;;;;;7.95;2.15;;;;;;;7.56;100.00;101428.28;4994905;28;20518;-75
2022/08/25 04:00:37;;;;;;;8.50;2.38;;;;;;;7.54;100.00;101434.75;4993844;28;20037;-73
2022/08/25 04:03:03;;;;;;;11.45;1.92;;;;;;;7.43;100.00;101433.91;4986584;28;20511;-73
2022/08/25 04:05:28;;;;;;;9.18;2.38;;;;;;;7.37;100.00;101433.63;5002512;28;20033;-74
2022/08/25 04:07:54;;;;;;;6.57;1.98;;;;;;;7.33;100.00;101422.38;4997851;28;20030;-74
2022/08/25 04:10:20;;;;;;;8.48;1.95;;;;;;;7.22;100.00;101409.09;4993900;28;20030;-73
2022/08/25 04:12:48;;;;;;;10.90;1.92;;;;;;;7.42;100.00;101431.38;4997441;28;20027;-73
2022/08/25 04:15:13;;;;;;;7.07;1.50;;;;;;;7.56;100.00;101427.44;4966223;28;20046;-73
2022/08/25 04:17:39;;;;;;;3.42;1.52;;;;;;;7.76;100.00;101423.81;4996230;28;20369;-73
2022/08/25 04:20:08;;;;;;;5.50;0.90;;;;;;;7.90;100.00;101414.47;4995703;28;20025;-74
2022/08/25 04:22:34;;;;;;;2.58;1.20;;;;;;;8.15;100.00;101427.28;4997422;28;20037;-73
2022/08/25 04:25:01;;;;;;;9.98;1.50;;;;;;;8.25;100.00;101423.72;4965481;28;20076;-73
2022/08/25 04:27:26;;;;;;;3.08;1.15;;;;;;;8.33;100.00;101415.81;4998364;28;20045;-73
2022/08/25 04:29:52;;;;;;;4.93;1.70;;;;;;;8.30;100.00;101398.19;5001704;28;20034;-74
2022/08/25 04:32:18;;;;;;;6.65;1.70;;;;;;;8.42;100.00;101423.03;5003307;28;20457;-73
2022/08/25 04:34:44;;;;;;;7.90;1.80;;;;;;;8.51;100.00;101423.97;4968574;28;20041;-73
2022/08/25 04:37:10;;;;;;;6.07;2.15;;;;;;;8.60;100.00;101428.47;5004114;28;20442;-73
2022/08/25 04:39:36;;;;;;;5.97;2.17;;;;;;;8.56;100.00;101405.63;5005424;28;20037;-74
2022/08/25 04:42:02;;;;;;;7.30;1.70;;;;;;;8.51;100.00;101394.50;4963514;28;20524;-73
2022/08/25 04:44:29;;;;;;;5.57;1.88;;;;;;;8.74;100.00;101417.28;5006084;28;20088;-73
2022/08/25 04:46:55;;;;;;;8.43;2.17;;;;;;;8.73;100.00;101418.28;4974105;28;20448;-74
2022/08/25 04:49:21;;;;;;;10.95;2.10;;;;;;;8.80;100.00;101429.25;4984741;28;20034;-74
2022/08/25 04:51:46;;;;;;;5.43;1.58;;;;;;;8.84;100.00;101414.56;5008272;28;20034;-73
2022/08/25 04:54:15;;;;;;;9.32;2.20;;;;;;;8.83;100.00;101414.69;4990346;28;20064;-74
2022/08/25 04:56:42;;;;;;;9.02;2.25;;;;;;;8.90;100.00;101423.84;4969395;28;20034;-73
2022/08/25 04:59:10;;;;;;;5.15;1.90;;;;;;;8.92;100.00;101416.50;4998532;28;20100;-74
2022/08/25 05:01:37;;;;;;;5.93;2.45;;;;;;;8.92;100.00;101408.44;5006058;28;20121;-73
2022/08/25 05:04:05;;;;;;;8.05;2.10;;;;;;;9.03;100.00;101422.50;4997103;28;20038;-74
2022/08/25 05:06:31;;;;;;;17.42;2.60;;;;;;;9.11;100.00;101431.63;5007614;28;20034;-74
2022/08/25 05:08:57;;;;;;;7.97;2.03;;;;;;;9.12;100.00;101423.41;4987112;28;20484;-74
2022/08/25 05:11:24;;;;;;;9.65;2.72;;;;;;;9.22;100.00;101436.78;4987416;28;20126;-74
2022/08/25 05:13:52;;;;;;;6.53;2.20;;;;;;;9.18;100.00;101411.25;5005774;28;20108;-75
2022/08/25 05:16:19;;;;;;;7.03;2.40;;;;;;;9.13;100.00;101397.44;4995740;28;20030;-73
2022/08/25 05:18:44;;;;;;;18.60;2.72;;;;;;;9.33;100.00;101420.47;4977602;28;20031;-75
2022/08/25 05:21:13;;;;;;;10.90;2.70;;;;;;;9.35;100.00;101406.91;4998168;28;20415;-74
2022/08/25 05:23:39;;;;;;;14.32;2.47;;;;;;;9.34;100.00;101415.94;4997664;28;20034;-74
2022/08/25 05:26:10;;;;;;;16.15;2.53;;;;;;;9.22;100.00;101409.97;5001254;28;20034;-74
2022/08/25 05:28:37;;;;;;;10.80;2.83;;;;;;;9.03;100.00;101410.91;4975490;28;20475;-74
2022/08/25 05:31:03;;;;;;;14.00;3.00;;;;;;;8.91;100.00;101412.09;5002481;28;20053;-74
2022/08/25 05:33:30;;;;;;;8.10;2.42;;;;;;;8.70;100.00;101390.88;5008176;28;20041;-73
2022/08/25 05:35:55;;;;;;;7.57;2.00;;;;;;;8.57;100.00;101401.94;4954834;28;20038;-74
2022/08/25 05:38:21;;;;;;;14.10;2.85;;;;;;;8.34;100.00;101396.94;4999303;28;20033;-74
2022/08/25 05:40:51;;;;;;;13.52;2.47;;;;;;;8.17;100.00;101403.03;4966617;28;20093;-74
2022/08/25 05:43:17;;;;;;;15.05;2.33;;;;;;;7.99;100.00;101407.41;5003619;28;20034;-74
2022/08/25 05:45:43;;;;;;;9.77;2.10;;;;;;;7.96;100.00;101407.72;4967926;28;20045;-73
2022/08/25 05:48:08;;;;;;;7.18;2.53;;;;;;;7.91;100.00;101410.81;4969093;28;20089;-75
2022/08/25 05:50:34;;;;;;;7.20;2.08;;;;;;;7.85;100.00;101416.75;4965178;28;20033;-73
2022/08/25 05:53:02;;;;;;;13.23;2.13;;;;;;;7.81;100.00;101405.47;4999039;28;20048;-74
2022/08/25 05:55:28;;;;;;;7.68;2.17;;;;;;;7.81;100.00;101410.00;4978496;28;20049;-74
2022/08/25 05:57:54;;;;;;;12.18;2.80;;;;;;;7.80;100.00;101414.47;4993631;28;20076;-74
2022/08/25 06:00:19;;;;;;;6.85;2.10;;;;;;;7.72;100.00;101409.84;4996285;28;20040;-74
2022/08/25 06:02:48;;;;;;;8.55;2.08;;;;;;;7.76;100.00;101404.22;5003784;28;20256;-74
2022/08/25 06:05:20;;;;;;;10.45;2.05;;;;;;;7.77;100.00;101412.09;4982301;28;20041;-74
2022/08/25 06:07:47;;;;;;;10.50;2.33;;;;;;;7.79;100.00;101423.50;4995975;28;20072;-73
2022/08/25 06:10:14;;;;;;;5.93;1.90;;;;;;;7.83;100.00;101419.59;4998242;28;20038;-74
2022/08/25 06:12:43;;;;;;;8.27;2.10;;;;;;;7.91;100.00;101417.03;4956589;28;20117;-73
2022/08/25 06:15:13;;;;;;;8.57;2.20;;;;;;;8.03;100.00;101424.91;4988496;28;20049;-74
2022/08/25 06:17:41;;;;;;;8.32;1.77;;;;;;;8.02;100.00;101412.50;4974302;28;20049;-73
2022/08/25 06:20:12;;;;;;;6.88;1.88;;;;;;;7.99;100.00;101426.16;4995664;28;20244;-73
2022/08/25 06:22:39;;;;;;;8.85;2.50;;;;;;;7.96;100.00;101418.44;4999500;28;20074;-74
2022/08/25 06:25:06;;;;;;;4.45;1.92;;;;;;;7.90;100.00;101401.94;4970310;28;20057;-74
2022/08/25 06:27:32;;;;;;;8.65;1.88;;;;;;;8.00;100.00;101425.19;4990041;28;20093;-74
2022/08/25 06:30:02;;;;;;;5.55;1.70;;;;;;;8.06;100.00;101413.91;4986498;28;20034;-73
2022/08/25 06:32:31;;;;;;;4.47;2.00;;;;;;;8.21;100.00;101417.00;4963486;28;20120;-74
2022/08/25 06:34:57;;;;;;;8.95;1.80;;;;;;;8.37;100.00;101420.75;4985105;28;20034;-74
2022/08/25 06:37:24;;;;;;;8.52;1.70;;;;;;;8.57;100.00;101423.38;4967653;28;20049;-73
2022/08/25 06:39:50;;;;;;;5.88;2.15;;;;;;;8.89;100.00;101425.69;4971609;28;20034;-73
2022/08/25 06:42:16;;;;;;;11.80;2.30;;;;;;;9.34;100.00;101427.53;4988452;28;20045;-73
2022/08/25 06:44:42;;;;;;;8.13;2.40;;;;;;;9.78;100.00;101424.94;4978161;28;20050;-74
2022/08/25 06:47:08;;;;;;;12.85;2.15;;;;;;;10.14;100.00;101419.53;4997692;28;20076;-74
2022/08/25 06:49:34;;;;;;;13.52;2.78;;;;;;;10.54;100.00;101421.66;5001038;28;20121;-74
2022/08/25 06:52:03;;;;;;;13.55;3.05;;;;;;;10.90;100.00;101413.44;4998386;28;20041;-75
2022/08/25 06:54:28;;;;;;;11.40;2.92;;;;;;;11.25;100.00;101416.94;4985006;28;20038;-75
2022/08/25 06:56:54;;;;;;;12.82;3.20;;;;;;;11.63;100.00;101420.84;5002038;28;20499;-74
2022/08/25 06:59:20;;;;;;;14.85;3.40;;;;;;;11.88;100.00;101432.53;4986357;28;20204;-75
2022/08/25 07:01:46;;;;;;;20.13;4.28;;;;;;;11.98;100.00;101423.44;4995967;28;20181;-74
2022/08/25 07:04:17;;;;;;;19.35;3.50;;;;;;;12.01;100.00;101410.50;4981037;28;20449;-73
2022/08/25 07:06:43;;;;;;;19.50;4.32;;;;;;;12.24;100.00;101420.56;4989878;28;20026;-73
2022/08/25 07:09:17;;;;;;;17.02;3.30;;;;;;;12.26;100.00;101405.06;4963816;28;20046;-74
2022/08/25 07:11:49;;;;;;;18.58;3.55;;;;;;;12.46;100.00;101417.16;4994444;28;20029;-75
2022/08/25 07:14:19;;;;;;;21.00;6.25;;;;;;;12.57;100.00;101421.34;4998361;28;22177;-75
2022/08/25 07:17:05;;;;;;;16.23;3.53;;;;;;;12.65;100.00;101423.16;4988805;28;20041;-74
2022/08/25 07:19:31;;;;;;;22.35;4.97;;;;;;;12.88;100.00;101417.84;4959294;28;20049;-74
2022/08/25 07:21:57;;;;;;;21.05;3.85;;;;;;;13.11;100.00;101420.63;4965759;28;20384;-75
2022/08/25 07:24:23;;;;;;;21.38;4.20;;;;;;;13.27;100.00;101417.88;4967190;28;20091;-74
2022/08/25 07:26:49;;;;;;;23.80;4.65;;;;;;;14.44;100.00;101437.38;4955934;28;20040;-74
2022/08/25 07:29:23;;;;;;;23.77;4.75;;;;;;;14.83;100.00;101424.66;4971636;28;20039;-75
2022/08/25 07:31:49;;;;;;;19.05;4.80;;;;;;;15.16;100.00;101427.78;4981580;28;20112;-75
2022/08/25 07:37:01;;;;;;;20.63;5.55;;;;;;;14.26;100.00;101434.19;5005217;28;20115;-74
2022/08/25 07:39:27;;;;;;;18.98;4.70;;;;;;;13.97;100.00;101416.88;4984884;28;20141;-74
2022/08/25 07:41:53;;;;;;;19.45;4.38;;;;;;;13.86;100.00;101438.94;5006323;28;20112;-75
2022/08/25 07:44:20;;;;;;;17.65;4.78;;;;;;;13.73;100.00;101433.28;4965748;28;20057;-76
2022/08/25 07:46:47;;;;;;;23.70;5.07;;;;;;;13.64;100.00;101438.75;4987742;28;20038;-74
2022/08/25 07:49:13;;;;;;;11.25;3.65;;;;;;;13.69;100.00;101442.78;4988469;28;20383;-75
2022/08/25 07:51:38;;;;;;;21.27;4.13;;;;;;;13.60;100.00;101445.53;4968795;28;20040;-74
2022/08/25 07:54:04;;;;;;;28.98;5.32;;;;;;;13.60;100.00;101447.38;4988577;28;20042;-74
2022/08/25 07:56:30;;;;;;;28.45;8.32;;;;;;;13.67;100.00;101447.53;4967475;28;20399;-74
2022/08/25 07:58:56;;;;;;;21.55;5.63;;;;;;;13.76;100.00;101443.72;5000983;28;20049;-75
2022/08/25 08:01:23;;;;;;;26.88;5.03;;;;;;;13.92;100.00;101449.03;4998739;28;20026;-75
2022/08/25 08:03:49;;;;;;;17.50;4.30;;;;;;;13.90;100.00;101440.25;4988552;28;20040;-74
2022/08/25 08:06:17;;;;;;;23.63;4.65;;;;;;;14.05;100.00;101451.09;4999083;28;20379;-74
2022/08/25 08:08:45;;;;;;;21.98;5.22;;;;;;;13.92;100.00;101434.66;4969835;28;20096;-74
2022/08/25 08:11:19;;;;;;;24.33;5.15;;;;;;;14.18;100.00;101459.44;5002614;28;20411;-74
2022/08/25 08:13:46;;;;;;;25.75;4.78;;;;;;;14.28;100.00;101459.19;5001859;28;20038;-74
2022/08/25 08:16:14;;;;;;;25.58;5.07;;;;;;;14.39;100.00;101453.34;5000551;28;20053;-74
2022/08/25 08:18:41;;;;;;;27.45;5.47;;;;;;;14.99;100.00;101470.50;4981506;28;20034;-73
2022/08/25 08:21:19;;;;;;;26.58;5.00;;;;;;;15.26;100.00;101460.00;4997054;28;20408;-73
2022/08/25 08:23:44;;;;;;;25.27;5.28;;;;;;;15.32;100.00;101461.94;4964082;28;20100;-74
2022/08/25 08:26:10;;;;;;;21.52;4.95;;;;;;;15.65;100.00;101462.34;4997783;28;20042;-73
2022/08/25 08:28:36;;;;;;;16.42;3.97;;;;;;;16.18;100.00;101462.88;4997065;28;20041;-77
2022/08/25 08:31:05;;;;;;;18.23;4.68;;;;;;;16.38;100.00;101464.91;5002253;28;20029;-79
2022/08/25 08:33:33;;;;;;;14.93;3.53;;;;;;;18.45;97.87;101479.13;4990305;28;20030;-77
2022/08/25 08:36:01;;;;;;;19.85;4.75;;;;;;;20.50;86.51;101464.72;5000720;28;20049;-78
2022/08/25 08:38:27;;;;;;;17.83;3.25;;;;;;;21.67;77.72;101466.56;4999057;28;20124;-79
2022/08/25 08:43:58;;;;;;;15.30;3.47;;;;;;;23.54;71.99;101477.81;4984381;28;20048;-76
2022/08/25 08:46:30;;;;;;;11.50;3.30;;;;;;;23.76;66.06;101453.25;4975133;28;20025;-76
2022/08/25 08:49:01;;;;;;;19.92;3.67;;;;;;;24.07;65.58;101462.88;4985176;28;20093;-76
2022/08/25 08:51:31;;;;;;;19.25;3.67;;;;;;;25.12;63.64;101474.09;4996668;28;20116;-74
2022/08/25 08:54:12;;;;;;;16.13;2.95;;;;;;;25.49;58.01;101462.47;4984778;28;20420;-74
2022/08/25 08:56:40;;;;;;;16.08;3.13;;;;;;;25.26;56.26;101458.88;4977487;28;20696;-74
2022/08/25 08:59:18;;;;;;;23.48;3.33;;;;;;;24.87;58.55;101456.16;4994032;28;20395;-76
2022/08/25 09:01:47;;;;;;;14.73;3.72;;;;;;;25.23;56.90;101454.72;4980254;28;20033;-74
2022/08/25 09:04:20;;;;;;;20.95;4.05;;;;;;;25.40;55.04;101460.16;4998637;28;20038;-74
2022/08/25 09:06:48;;;;;;;13.65;4.03;;;;;;;25.56;54.82;101455.66;4981359;28;20349;-74
2022/08/25 09:09:26;;;;;;;8.95;2.60;;;;;;;27.05;47.97;101454.88;4986956;28;20100;-74
2022/08/25 09:12:07;;;;;;;16.13;3.25;;;;;;;27.65;47.88;101460.88;4988584;28;20041;-74
2022/08/25 09:15:03;;;;;;;12.07;2.83;;;;;;;28.44;44.12;101458.75;4998999;28;20433;-74
2022/08/25 09:18:01;;;;;;;17.80;5.00;;;;;;;26.22;46.27;101460.13;4981464;28;20081;-74
2022/08/25 09:20:37;;;;;;;18.88;4.22;;;;;;;25.11;48.08;101428.38;4977313;28;20365;-74
2022/08/25 09:23:21;;;;;;;11.02;3.13;;;;;;;26.15;45.16;101460.38;4986642;28;20443;-76
2022/08/25 09:25:57;;;;;;;16.02;2.60;;;;;;;26.59;41.85;101453.81;5008590;28;20496;-76
2022/08/25 09:28:37;;;;;;;12.07;2.75;;;;;;;24.69;44.75;101451.78;4998170;28;20084;-74
2022/08/25 09:31:13;;;;;;;10.77;4.13;;;;;;;22.98;47.45;101455.56;4982635;28;20050;-75
2022/08/25 09:33:39;;;;;;;14.10;2.40;;;;;;;21.26;53.23;101457.19;5008512;28;20507;-77
2022/08/25 09:36:04;;;;;;;14.45;2.83;;;;;;;20.17;58.17;101435.81;4972389;28;20042;-78
2022/08/25 09:38:33;;;;;;;7.90;2.17;;;;;;;19.87;59.37;101457.50;5001518;28;20052;-74
2022/08/25 09:40:59;;;;;;;16.17;3.40;;;;;;;23.04;50.59;101455.41;4982826;28;20030;-75
2022/08/25 09:43:54;;;;;;;10.02;2.00;;;;;;;22.03;51.57;101462.88;4982729;28;20113;-74
2022/08/25 09:46:26;;;;;;;10.60;2.85;;;;;;;20.77;54.42;101459.88;5004254;28;20046;-75
2022/08/25 09:48:58;;;;;;;9.27;2.40;;;;;;;19.80;57.41;101456.69;5010792;28;20034;-75
2022/08/25 09:51:26;;;;;;;6.50;2.40;;;;;;;18.87;61.10;101457.09;5005264;28;20506;-74
2022/08/25 09:53:58;;;;;;;12.65;2.67;;;;;;;18.20;62.98;101462.56;4999720;28;20113;-75
2022/08/25 09:56:27;;;;;;;16.27;2.63;;;;;;;17.70;65.56;101466.66;4987803;28;20034;-74
2022/08/25 09:58:56;;;;;;;10.93;2.60;;;;;;;17.31;66.86;101460.06;4989078;28;20045;-74
2022/08/25 10:01:23;;;;;;;13.57;2.50;;;;;;;17.18;68.17;101469.00;4987456;28;22057;-74
2022/08/25 10:03:59;;;;;;;13.52;2.80;;;;;;;17.24;69.20;101470.91;5006722;28;20068;-74
2022/08/25 10:06:29;;;;;;;9.77;2.33;;;;;;;17.30;69.64;101477.41;4970370;28;20245;-75
2022/08/25 10:08:58;;;;;;;16.63;2.92;;;;;;;17.42;69.80;101483.94;5008340;28;20042;-74
2022/08/25 10:11:40;;;;;;;7.68;2.22;;;;;;;17.48;69.62;101458.66;5000365;28;20453;-74
2022/08/25 10:14:23;;;;;;;10.68;2.38;;;;;;;17.59;68.56;101454.50;5000655;28;20088;-75
2022/08/25 10:16:49;;;;;;;10.85;3.35;;;;;;;17.61;66.70;101457.84;5003054;28;20034;-75
2022/08/25 10:19:21;;;;;;;13.00;2.78;;;;;;;17.69;66.73;101467.72;4986441;28;20048;-74
2022/08/25 10:22:01;;;;;;;8.80;3.30;;;;;;;17.64;67.07;101468.31;4987606;28;20061;-73
2022/08/25 10:24:29;;;;;;;10.35;2.47;;;;;;;17.52;67.55;101473.53;5006836;28;20038;-77
2022/08/25 10:27:25;;;;;;;11.10;1.83;;;;;;;17.41;67.79;101476.84;4983038;28;20031;-77
2022/08/25 10:29:51;;;;;;;11.43;2.40;;;;;;;17.30;69.77;101471.97;4993273;28;20038;-76
2022/08/25 10:32:19;;;;;;;9.45;2.42;;;;;;;17.27;69.88;101446.03;4995403;28;20124;-76
2022/08/25 10:34:45;;;;;;;9.52;2.33;;;;;;;17.61;67.89;101462.47;4989498;28;20040;-77
2022/08/25 10:37:53;;;;;;;10.23;2.30;;;;;;;17.93;67.19;101478.03;4987133;28;20030;-75
2022/08/25 10:40:27;;;;;;;11.82;2.47;;;;;;;18.07;64.57;101473.44;4983677;28;20034;-78
2022/08/25 10:43:35;;;;;;;6.63;2.80;;;;;;;17.89;64.89;101476.78;4973644;28;20033;-76
2022/08/25 10:46:23;;;;;;;7.15;2.03;;;;;;;17.82;64.95;101485.97;4954968;28;20038;-77
2022/08/25 10:49:09;;;;;;;11.25;3.60;;;;;;;17.77;64.33;101486.56;5005224;28;20046;-77
2022/08/25 10:51:38;;;;;;;9.93;2.22;;;;;;;17.62;65.25;101480.44;4965037;28;20034;-76
2022/08/25 10:54:22;;;;;;;8.70;2.40;;;;;;;17.63;64.98;101473.97;4990151;28;20052;-77
2022/08/25 10:56:57;;;;;;;4.68;1.65;;;;;;;17.73;63.54;101472.53;4995178;28;20123;-77
2022/08/25 10:59:28;;;;;;;6.38;1.70;;;;;;;17.84;63.66;101473.03;4968733;28;20667;-75
2022/08/25 11:02:02;;;;;;;6.68;1.90;;;;;;;17.97;63.44;101479.31;5003924;28;20038;-77
2022/08/25 11:04:35;;;;;;;6.68;1.60;;;;;;;18.10;62.11;101475.78;5008678;28;20361;-75
2022/08/25 11:07:13;;;;;;;5.97;1.90;;;;;;;18.24;61.66;101469.28;4976004;28;20068;-75
2022/08/25 11:09:43;;;;;;;6.57;1.75;;;;;;;18.50;61.42;101455.84;5009033;28;20033;-77
2022/08/25 11:12:30;;;;;;;6.82;1.65;;;;;;;18.79;59.91;101463.59;5009227;28;20069;-77
2022/08/25 11:15:00;;;;;;;8.40;2.00;;;;;;;19.10;59.51;101452.00;4969788;28;20047;-77
2022/08/25 11:17:31;;;;;;;6.63;1.90;;;;;;;19.45;58.04;101454.34;5001945;28;20033;-76
2022/08/25 11:20:05;;;;;;;6.00;1.52;;;;;;;19.64;56.66;101443.53;4990380;28;20038;-76
2022/08/25 11:22:42;;;;;;;8.45;2.40;;;;;;;19.81;56.44;101436.50;4976251;28;20468;-77
2022/08/25 11:25:52;;;;;;;4.72;1.60;;;;;;;20.37;55.18;101441.09;4999917;28;20037;-77
2022/08/25 11:28:43;;;;;;;8.35;1.80;;;;;;;20.74;52.29;101437.63;4999789;28;20042;-77
2022/08/25 11:31:09;;;;;;;6.85;1.90;;;;;;;20.77;51.09;101428.97;4972503;28;20520;-75
2022/08/25 11:33:35;;;;;;;10.85;1.75;;;;;;;21.00;49.09;101417.34;4983565;28;20449;-77
2022/08/25 11:36:25;;;;;;;3.17;1.30;;;;;;;21.71;47.95;101426.72;5005114;28;20072;-77